CheckWX is a tool to help pilots better visualize weather data.  It is not intended as a substitute for an official pre-flight weather briefing.

14:12:11 UTC

KDLS METAR
Columbia Gorge Regional / The Dalles Municipal Airport
The Dalles, Oregon, USA
Current

13 hours ago

KDLS 110053Z AUTO 00000KT 10SM OVC021 04/02 A3020 RMK AO2 RAB06E16 SLP230 P0001 T00440017
Observed
Dec-11 @ 00:53 UTC
Visibility
10 SM
Flight Rules
MVFR
Cloud Levels
  • Overcast at 2,100' AGL
Temperature
C / 39°F
Dewpoint
C / 36°F
Humidity
87%
Altimeter
30.2" Hg
Pressure
1022.72 hPa
Current Rain
0.01"
Previous

14 hours ago

KDLS 102353Z AUTO 06003KT 10SM OVC023 05/01 A3021 RMK AO2 SLP232 T00500011 10056 20044 56008
Observed
Dec-10 @ 23:53 UTC
Wind
  • 060° at 3 KTS
Visibility
10 SM
Flight Rules
MVFR
Cloud Levels
  • Overcast at 2,300' AGL
Temperature
C / 41°F
Dewpoint
C / 34°F
Humidity
76%
Altimeter
30.21" Hg
Pressure
1023.02 hPa
Previous

15 hours ago

KDLS 102253Z AUTO 03003KT 10SM SCT018 OVC025 06/01 A3022 RMK AO2 SLP234 T00560011
Observed
Dec-10 @ 22:53 UTC
Wind
  • 030° at 3 KTS
Visibility
10 SM
Flight Rules
MVFR
Cloud Levels
  • Scattered at 1,800' AGL
  • Overcast at 2,500' AGL
Temperature
C / 43°F
Dewpoint
C / 34°F
Humidity
71%
Altimeter
30.22" Hg
Pressure
1023.42 hPa